sensor_id;sensor_type;location;lat;lon;timestamp;P1;durP1;ratioP1;P2;durP2;ratioP2
59734;SDS011;64362;45.620;4.920;2023-12-07T00:01:37;3.88;;;2.08;;
59734;SDS011;64362;45.620;4.920;2023-12-07T00:04:03;3.75;;;2.00;;
59734;SDS011;64362;45.620;4.920;2023-12-07T00:06:28;3.97;;;2.15;;
59734;SDS011;64362;45.620;4.920;2023-12-07T00:08:54;2.88;;;1.77;;
59734;SDS011;64362;45.620;4.920;2023-12-07T00:11:21;3.28;;;1.70;;
59734;SDS011;64362;45.620;4.920;2023-12-07T00:13:47;2.70;;;2.00;;
59734;SDS011;64362;45.620;4.920;2023-12-07T00:16:13;3.45;;;1.73;;
59734;SDS011;64362;45.620;4.920;2023-12-07T00:18:39;3.13;;;2.05;;
59734;SDS011;64362;45.620;4.920;2023-12-07T00:21:04;3.35;;;2.10;;
59734;SDS011;64362;45.620;4.920;2023-12-07T00:23:30;3.35;;;2.00;;
59734;SDS011;64362;45.620;4.920;2023-12-07T00:25:55;3.03;;;2.10;;
59734;SDS011;64362;45.620;4.920;2023-12-07T00:28:21;3.20;;;1.90;;
59734;SDS011;64362;45.620;4.920;2023-12-07T00:30:46;2.50;;;1.77;;
59734;SDS011;64362;45.620;4.920;2023-12-07T00:33:12;3.78;;;2.03;;
59734;SDS011;64362;45.620;4.920;2023-12-07T00:35:37;2.78;;;1.75;;
59734;SDS011;64362;45.620;4.920;2023-12-07T00:38:03;3.42;;;1.80;;
59734;SDS011;64362;45.620;4.920;2023-12-07T00:40:28;2.80;;;1.90;;
59734;SDS011;64362;45.620;4.920;2023-12-07T00:42:54;3.17;;;1.90;;
59734;SDS011;64362;45.620;4.920;2023-12-07T00:45:19;3.50;;;2.30;;
59734;SDS011;64362;45.620;4.920;2023-12-07T00:47:45;3.22;;;2.10;;
59734;SDS011;64362;45.620;4.920;2023-12-07T00:50:13;3.42;;;2.13;;
59734;SDS011;64362;45.620;4.920;2023-12-07T00:52:39;3.55;;;2.15;;
59734;SDS011;64362;45.620;4.920;2023-12-07T00:55:05;3.28;;;2.08;;
59734;SDS011;64362;45.620;4.920;2023-12-07T00:57:31;3.45;;;2.17;;
59734;SDS011;64362;45.620;4.920;2023-12-07T00:59:56;4.30;;;2.30;;
59734;SDS011;64362;45.620;4.920;2023-12-07T01:02:21;3.58;;;2.45;;
59734;SDS011;64362;45.620;4.920;2023-12-07T01:04:47;4.32;;;2.42;;
59734;SDS011;64362;45.620;4.920;2023-12-07T01:07:12;3.45;;;2.15;;
59734;SDS011;64362;45.620;4.920;2023-12-07T01:09:38;2.83;;;2.00;;
59734;SDS011;64362;45.620;4.920;2023-12-07T01:12:04;2.80;;;2.05;;
59734;SDS011;64362;45.620;4.920;2023-12-07T01:14:29;3.55;;;1.98;;
59734;SDS011;64362;45.620;4.920;2023-12-07T01:16:55;4.10;;;2.38;;
59734;SDS011;64362;45.620;4.920;2023-12-07T01:19:20;3.38;;;2.00;;
59734;SDS011;64362;45.620;4.920;2023-12-07T01:21:46;3.63;;;2.20;;
59734;SDS011;64362;45.620;4.920;2023-12-07T01:24:11;3.55;;;2.58;;
59734;SDS011;64362;45.620;4.920;2023-12-07T01:26:37;3.92;;;1.90;;
59734;SDS011;64362;45.620;4.920;2023-12-07T01:29:02;2.70;;;1.73;;
59734;SDS011;64362;45.620;4.920;2023-12-07T01:31:28;2.67;;;1.65;;
59734;SDS011;64362;45.620;4.920;2023-12-07T01:33:55;3.13;;;1.80;;
59734;SDS011;64362;45.620;4.920;2023-12-07T01:36:20;3.17;;;1.77;;
59734;SDS011;64362;45.620;4.920;2023-12-07T01:38:46;2.78;;;1.75;;
59734;SDS011;64362;45.620;4.920;2023-12-07T01:41:11;2.78;;;1.90;;
59734;SDS011;64362;45.620;4.920;2023-12-07T01:43:37;2.65;;;1.77;;
59734;SDS011;64362;45.620;4.920;2023-12-07T01:46:03;2.97;;;1.80;;
59734;SDS011;64362;45.620;4.920;2023-12-07T01:48:28;3.38;;;2.10;;
59734;SDS011;64362;45.620;4.920;2023-12-07T01:50:55;3.60;;;1.92;;
59734;SDS011;64362;45.620;4.920;2023-12-07T01:53:21;2.63;;;1.83;;
59734;SDS011;64362;45.620;4.920;2023-12-07T01:55:47;2.83;;;1.92;;
59734;SDS011;64362;45.620;4.920;2023-12-07T01:58:13;3.30;;;1.88;;
59734;SDS011;64362;45.620;4.920;2023-12-07T02:00:39;3.13;;;1.80;;
59734;SDS011;64362;45.620;4.920;2023-12-07T02:03:05;2.92;;;1.98;;
59734;SDS011;64362;45.620;4.920;2023-12-07T02:05:31;2.58;;;1.90;;
59734;SDS011;64362;45.620;4.920;2023-12-07T02:07:57;4.03;;;2.00;;
59734;SDS011;64362;45.620;4.920;2023-12-07T02:10:23;2.63;;;1.67;;
59734;SDS011;64362;45.620;4.920;2023-12-07T02:12:49;2.78;;;1.88;;
59734;SDS011;64362;45.620;4.920;2023-12-07T02:15:14;3.70;;;1.70;;
59734;SDS011;64362;45.620;4.920;2023-12-07T02:20:13;2.55;;;1.80;;
59734;SDS011;64362;45.620;4.920;2023-12-07T02:23:04;3.30;;;1.65;;
59734;SDS011;64362;45.620;4.920;2023-12-07T02:25:36;2.80;;;1.60;;
59734;SDS011;64362;45.620;4.920;2023-12-07T02:28:05;3.58;;;1.88;;
59734;SDS011;64362;45.620;4.920;2023-12-07T02:30:30;2.45;;;1.70;;
59734;SDS011;64362;45.620;4.920;2023-12-07T02:32:56;2.58;;;1.75;;
59734;SDS011;64362;45.620;4.920;2023-12-07T02:35:21;3.33;;;1.67;;
59734;SDS011;64362;45.620;4.920;2023-12-07T02:37:50;2.53;;;1.83;;
59734;SDS011;64362;45.620;4.920;2023-12-07T02:40:23;3.90;;;1.70;;
59734;SDS011;64362;45.620;4.920;2023-12-07T02:42:50;2.20;;;1.70;;
59734;SDS011;64362;45.620;4.920;2023-12-07T02:45:16;2.78;;;1.92;;
59734;SDS011;64362;45.620;4.920;2023-12-07T02:47:42;2.63;;;1.70;;
59734;SDS011;64362;45.620;4.920;2023-12-07T02:50:10;3.42;;;1.80;;
59734;SDS011;64362;45.620;4.920;2023-12-07T02:52:36;2.53;;;1.75;;
59734;SDS011;64362;45.620;4.920;2023-12-07T02:55:02;2.60;;;1.77;;
59734;SDS011;64362;45.620;4.920;2023-12-07T02:57:28;2.95;;;1.70;;
59734;SDS011;64362;45.620;4.920;2023-12-07T02:59:54;3.38;;;1.70;;
59734;SDS011;64362;45.620;4.920;2023-12-07T03:02:20;2.50;;;1.50;;
59734;SDS011;64362;45.620;4.920;2023-12-07T03:04:45;3.05;;;2.15;;
59734;SDS011;64362;45.620;4.920;2023-12-07T03:07:11;2.92;;;1.73;;
59734;SDS011;64362;45.620;4.920;2023-12-07T03:09:36;3.25;;;1.98;;
59734;SDS011;64362;45.620;4.920;2023-12-07T03:12:02;2.95;;;1.83;;
59734;SDS011;64362;45.620;4.920;2023-12-07T03:14:27;3.38;;;1.88;;
59734;SDS011;64362;45.620;4.920;2023-12-07T03:16:53;2.92;;;1.70;;
59734;SDS011;64362;45.620;4.920;2023-12-07T03:19:18;2.92;;;2.00;;
59734;SDS011;64362;45.620;4.920;2023-12-07T03:21:44;2.63;;;1.65;;
59734;SDS011;64362;45.620;4.920;2023-12-07T03:24:09;2.95;;;2.20;;
59734;SDS011;64362;45.620;4.920;2023-12-07T03:26:36;2.53;;;1.83;;
59734;SDS011;64362;45.620;4.920;2023-12-07T03:29:01;3.15;;;2.00;;
59734;SDS011;64362;45.620;4.920;2023-12-07T03:31:27;3.03;;;1.85;;
59734;SDS011;64362;45.620;4.920;2023-12-07T03:33:53;4.15;;;2.40;;
59734;SDS011;64362;45.620;4.920;2023-12-07T03:36:19;3.47;;;1.88;;
59734;SDS011;64362;45.620;4.920;2023-12-07T03:38:45;2.72;;;1.83;;
59734;SDS011;64362;45.620;4.920;2023-12-07T03:41:10;2.83;;;1.90;;
59734;SDS011;64362;45.620;4.920;2023-12-07T03:43:36;3.60;;;2.10;;
59734;SDS011;64362;45.620;4.920;2023-12-07T03:46:04;3.08;;;2.30;;
59734;SDS011;64362;45.620;4.920;2023-12-07T03:48:31;3.50;;;2.08;;
59734;SDS011;64362;45.620;4.920;2023-12-07T03:50:57;3.88;;;2.05;;
59734;SDS011;64362;45.620;4.920;2023-12-07T03:53:22;3.13;;;1.88;;
59734;SDS011;64362;45.620;4.920;2023-12-07T03:55:48;3.17;;;2.03;;
59734;SDS011;64362;45.620;4.920;2023-12-07T03:58:13;3.28;;;2.10;;
59734;SDS011;64362;45.620;4.920;2023-12-07T04:00:39;3.53;;;2.08;;
59734;SDS011;64362;45.620;4.920;2023-12-07T04:03:04;3.47;;;2.20;;
59734;SDS011;64362;45.620;4.920;2023-12-07T04:05:30;3.63;;;2.50;;
59734;SDS011;64362;45.620;4.920;2023-12-07T04:07:56;3.50;;;2.40;;
59734;SDS011;64362;45.620;4.920;2023-12-07T04:10:21;4.00;;;2.33;;
59734;SDS011;64362;45.620;4.920;2023-12-07T04:12:47;5.20;;;2.70;;
59734;SDS011;64362;45.620;4.920;2023-12-07T04:15:12;5.88;;;3.35;;
59734;SDS011;64362;45.620;4.920;2023-12-07T04:17:38;3.45;;;2.40;;
59734;SDS011;64362;45.620;4.920;2023-12-07T04:20:03;4.28;;;2.67;;
59734;SDS011;64362;45.620;4.920;2023-12-07T04:22:30;4.43;;;2.70;;
59734;SDS011;64362;45.620;4.920;2023-12-07T04:24:56;3.47;;;2.53;;
59734;SDS011;64362;45.620;4.920;2023-12-07T04:27:21;4.47;;;2.60;;
59734;SDS011;64362;45.620;4.920;2023-12-07T04:29:47;5.07;;;2.75;;
59734;SDS011;64362;45.620;4.920;2023-12-07T04:32:12;4.07;;;2.75;;
59734;SDS011;64362;45.620;4.920;2023-12-07T04:34:38;5.18;;;3.08;;
59734;SDS011;64362;45.620;4.920;2023-12-07T04:37:03;3.80;;;2.58;;
59734;SDS011;64362;45.620;4.920;2023-12-07T04:39:29;4.30;;;3.10;;
59734;SDS011;64362;45.620;4.920;2023-12-07T04:41:54;3.63;;;2.97;;
59734;SDS011;64362;45.620;4.920;2023-12-07T04:44:20;4.35;;;3.00;;
59734;SDS011;64362;45.620;4.920;2023-12-07T04:46:45;3.90;;;2.75;;
59734;SDS011;64362;45.620;4.920;2023-12-07T04:49:10;3.75;;;2.58;;
59734;SDS011;64362;45.620;4.920;2023-12-07T04:51:36;4.35;;;2.90;;
59734;SDS011;64362;45.620;4.920;2023-12-07T04:54:01;3.90;;;2.78;;
59734;SDS011;64362;45.620;4.920;2023-12-07T04:56:27;4.20;;;3.00;;
59734;SDS011;64362;45.620;4.920;2023-12-07T04:58:52;5.75;;;3.15;;
59734;SDS011;64362;45.620;4.920;2023-12-07T05:01:18;4.78;;;3.00;;
59734;SDS011;64362;45.620;4.920;2023-12-07T05:03:46;5.15;;;3.20;;
59734;SDS011;64362;45.620;4.920;2023-12-07T05:06:12;4.85;;;3.28;;
59734;SDS011;64362;45.620;4.920;2023-12-07T05:08:39;4.55;;;3.03;;
59734;SDS011;64362;45.620;4.920;2023-12-07T05:11:04;3.95;;;3.00;;
59734;SDS011;64362;45.620;4.920;2023-12-07T05:13:31;4.65;;;3.10;;
59734;SDS011;64362;45.620;4.920;2023-12-07T05:15:58;4.63;;;3.08;;
59734;SDS011;64362;45.620;4.920;2023-12-07T05:18:25;5.72;;;3.33;;
59734;SDS011;64362;45.620;4.920;2023-12-07T05:20:50;4.00;;;3.08;;
59734;SDS011;64362;45.620;4.920;2023-12-07T05:23:16;4.35;;;2.83;;
59734;SDS011;64362;45.620;4.920;2023-12-07T05:25:41;4.00;;;2.80;;
59734;SDS011;64362;45.620;4.920;2023-12-07T05:28:07;5.70;;;3.13;;
59734;SDS011;64362;45.620;4.920;2023-12-07T05:30:32;4.18;;;3.28;;
59734;SDS011;64362;45.620;4.920;2023-12-07T05:32:57;4.32;;;2.95;;
59734;SDS011;64362;45.620;4.920;2023-12-07T05:35:23;6.70;;;3.47;;
59734;SDS011;64362;45.620;4.920;2023-12-07T05:37:48;5.95;;;3.40;;
59734;SDS011;64362;45.620;4.920;2023-12-07T05:40:14;4.68;;;2.78;;
59734;SDS011;64362;45.620;4.920;2023-12-07T05:42:41;4.60;;;3.10;;
59734;SDS011;64362;45.620;4.920;2023-12-07T05:45:06;4.57;;;3.22;;
59734;SDS011;64362;45.620;4.920;2023-12-07T05:47:32;4.70;;;3.08;;
59734;SDS011;64362;45.620;4.920;2023-12-07T05:49:57;4.32;;;2.78;;
59734;SDS011;64362;45.620;4.920;2023-12-07T05:52:25;4.95;;;3.20;;
59734;SDS011;64362;45.620;4.920;2023-12-07T05:54:50;4.43;;;3.00;;
59734;SDS011;64362;45.620;4.920;2023-12-07T05:57:16;4.07;;;2.50;;
59734;SDS011;64362;45.620;4.920;2023-12-07T05:59:41;4.00;;;2.53;;
59734;SDS011;64362;45.620;4.920;2023-12-07T06:02:08;4.18;;;2.70;;
59734;SDS011;64362;45.620;4.920;2023-12-07T06:04:34;4.45;;;2.65;;
59734;SDS011;64362;45.620;4.920;2023-12-07T06:06:59;6.30;;;3.10;;
59734;SDS011;64362;45.620;4.920;2023-12-07T06:09:25;4.70;;;2.92;;
59734;SDS011;64362;45.620;4.920;2023-12-07T06:11:50;5.05;;;3.20;;
59734;SDS011;64362;45.620;4.920;2023-12-07T06:14:16;4.78;;;2.92;;
59734;SDS011;64362;45.620;4.920;2023-12-07T06:16:42;4.82;;;3.15;;
59734;SDS011;64362;45.620;4.920;2023-12-07T06:19:07;4.47;;;3.13;;
59734;SDS011;64362;45.620;4.920;2023-12-07T06:21:33;4.10;;;3.13;;
59734;SDS011;64362;45.620;4.920;2023-12-07T06:23:58;4.47;;;3.13;;
59734;SDS011;64362;45.620;4.920;2023-12-07T06:26:24;5.30;;;3.13;;
59734;SDS011;64362;45.620;4.920;2023-12-07T06:28:50;4.10;;;2.88;;
59734;SDS011;64362;45.620;4.920;2023-12-07T06:31:16;3.47;;;2.63;;
59734;SDS011;64362;45.620;4.920;2023-12-07T06:33:45;4.85;;;3.42;;
59734;SDS011;64362;45.620;4.920;2023-12-07T06:36:10;4.00;;;2.80;;
59734;SDS011;64362;45.620;4.920;2023-12-07T06:38:36;4.70;;;3.50;;
59734;SDS011;64362;45.620;4.920;2023-12-07T06:41:03;5.05;;;2.92;;
59734;SDS011;64362;45.620;4.920;2023-12-07T06:43:29;3.95;;;3.10;;
59734;SDS011;64362;45.620;4.920;2023-12-07T06:45:54;4.20;;;2.85;;
59734;SDS011;64362;45.620;4.920;2023-12-07T06:48:19;5.28;;;2.92;;
59734;SDS011;64362;45.620;4.920;2023-12-07T06:50:45;5.07;;;3.42;;
59734;SDS011;64362;45.620;4.920;2023-12-07T06:53:10;4.90;;;3.13;;
59734;SDS011;64362;45.620;4.920;2023-12-07T06:55:36;4.43;;;3.20;;
59734;SDS011;64362;45.620;4.920;2023-12-07T06:58:01;4.55;;;3.20;;
59734;SDS011;64362;45.620;4.920;2023-12-07T07:00:27;4.30;;;2.97;;
59734;SDS011;64362;45.620;4.920;2023-12-07T07:02:52;4.00;;;2.90;;
59734;SDS011;64362;45.620;4.920;2023-12-07T07:05:17;4.22;;;2.90;;
59734;SDS011;64362;45.620;4.920;2023-12-07T07:07:43;4.72;;;2.92;;
59734;SDS011;64362;45.620;4.920;2023-12-07T07:10:08;4.90;;;2.92;;
59734;SDS011;64362;45.620;4.920;2023-12-07T07:12:37;4.43;;;2.67;;
59734;SDS011;64362;45.620;4.920;2023-12-07T07:15:03;5.72;;;3.00;;
59734;SDS011;64362;45.620;4.920;2023-12-07T07:17:29;4.88;;;3.05;;
59734;SDS011;64362;45.620;4.920;2023-12-07T07:19:55;3.85;;;2.47;;
59734;SDS011;64362;45.620;4.920;2023-12-07T07:22:20;3.95;;;2.83;;
59734;SDS011;64362;45.620;4.920;2023-12-07T07:24:47;4.15;;;2.92;;
59734;SDS011;64362;45.620;4.920;2023-12-07T07:27:12;6.10;;;3.00;;
59734;SDS011;64362;45.620;4.920;2023-12-07T07:29:38;4.32;;;2.78;;
59734;SDS011;64362;45.620;4.920;2023-12-07T07:32:03;4.50;;;3.00;;
59734;SDS011;64362;45.620;4.920;2023-12-07T07:34:29;4.25;;;2.67;;
59734;SDS011;64362;45.620;4.920;2023-12-07T07:36:54;4.63;;;2.83;;
59734;SDS011;64362;45.620;4.920;2023-12-07T07:39:20;3.42;;;2.55;;
59734;SDS011;64362;45.620;4.920;2023-12-07T07:41:45;4.28;;;2.70;;
59734;SDS011;64362;45.620;4.920;2023-12-07T07:44:11;4.32;;;2.33;;
59734;SDS011;64362;45.620;4.920;2023-12-07T07:46:36;3.22;;;2.35;;
59734;SDS011;64362;45.620;4.920;2023-12-07T07:49:02;3.13;;;1.92;;
59734;SDS011;64362;45.620;4.920;2023-12-07T07:51:29;3.10;;;2.40;;
59734;SDS011;64362;45.620;4.920;2023-12-07T07:53:55;2.83;;;2.38;;
59734;SDS011;64362;45.620;4.920;2023-12-07T07:56:21;3.58;;;2.28;;
59734;SDS011;64362;45.620;4.920;2023-12-07T07:58:47;3.05;;;2.10;;
59734;SDS011;64362;45.620;4.920;2023-12-07T08:01:12;4.00;;;2.15;;
59734;SDS011;64362;45.620;4.920;2023-12-07T08:03:38;4.35;;;2.17;;
59734;SDS011;64362;45.620;4.920;2023-12-07T08:06:03;3.25;;;2.10;;
59734;SDS011;64362;45.620;4.920;2023-12-07T08:08:29;2.70;;;1.98;;
59734;SDS011;64362;45.620;4.920;2023-12-07T08:10:54;4.47;;;2.13;;
59734;SDS011;64362;45.620;4.920;2023-12-07T08:13:20;3.45;;;2.30;;
59734;SDS011;64362;45.620;4.920;2023-12-07T08:15:45;3.28;;;2.15;;
59734;SDS011;64362;45.620;4.920;2023-12-07T08:18:11;2.90;;;1.95;;
59734;SDS011;64362;45.620;4.920;2023-12-07T08:20:36;3.70;;;2.33;;
59734;SDS011;64362;45.620;4.920;2023-12-07T08:23:02;3.72;;;2.00;;
59734;SDS011;64362;45.620;4.920;2023-12-07T08:25:28;4.40;;;2.38;;
59734;SDS011;64362;45.620;4.920;2023-12-07T08:27:53;2.95;;;1.80;;
59734;SDS011;64362;45.620;4.920;2023-12-07T08:30:19;2.80;;;1.88;;
59734;SDS011;64362;45.620;4.920;2023-12-07T08:32:44;2.75;;;2.00;;
59734;SDS011;64362;45.620;4.920;2023-12-07T08:35:10;3.08;;;2.00;;
59734;SDS011;64362;45.620;4.920;2023-12-07T08:37:37;2.88;;;2.20;;
59734;SDS011;64362;45.620;4.920;2023-12-07T08:40:03;2.85;;;2.20;;
59734;SDS011;64362;45.620;4.920;2023-12-07T08:42:28;4.65;;;2.38;;
59734;SDS011;64362;45.620;4.920;2023-12-07T08:44:56;3.78;;;2.40;;
59734;SDS011;64362;45.620;4.920;2023-12-07T08:47:22;4.05;;;2.50;;
59734;SDS011;64362;45.620;4.920;2023-12-07T08:49:47;3.13;;;2.03;;
59734;SDS011;64362;45.620;4.920;2023-12-07T08:52:13;3.58;;;2.25;;
59734;SDS011;64362;45.620;4.920;2023-12-07T08:54:38;3.00;;;2.25;;
59734;SDS011;64362;45.620;4.920;2023-12-07T08:57:04;2.90;;;2.08;;
59734;SDS011;64362;45.620;4.920;2023-12-07T08:59:29;3.08;;;1.98;;
59734;SDS011;64362;45.620;4.920;2023-12-07T09:01:55;4.78;;;2.53;;
59734;SDS011;64362;45.620;4.920;2023-12-07T09:04:21;3.58;;;2.20;;
59734;SDS011;64362;45.620;4.920;2023-12-07T09:06:46;3.40;;;2.08;;
59734;SDS011;64362;45.620;4.920;2023-12-07T09:09:12;4.95;;;2.38;;
59734;SDS011;64362;45.620;4.920;2023-12-07T09:11:37;4.45;;;2.20;;
59734;SDS011;64362;45.620;4.920;2023-12-07T09:14:03;3.38;;;2.20;;
59734;SDS011;64362;45.620;4.920;2023-12-07T09:16:28;4.10;;;2.00;;
59734;SDS011;64362;45.620;4.920;2023-12-07T09:18:53;4.22;;;2.20;;
59734;SDS011;64362;45.620;4.920;2023-12-07T09:21:19;2.80;;;1.90;;
59734;SDS011;64362;45.620;4.920;2023-12-07T09:23:44;3.10;;;1.90;;
59734;SDS011;64362;45.620;4.920;2023-12-07T09:26:10;4.13;;;1.73;;
59734;SDS011;64362;45.620;4.920;2023-12-07T09:28:36;3.28;;;2.15;;
59734;SDS011;64362;45.620;4.920;2023-12-07T09:31:01;3.10;;;1.80;;
59734;SDS011;64362;45.620;4.920;2023-12-07T09:33:26;3.72;;;2.15;;
59734;SDS011;64362;45.620;4.920;2023-12-07T09:35:52;4.75;;;1.90;;
59734;SDS011;64362;45.620;4.920;2023-12-07T09:38:17;4.63;;;2.05;;
59734;SDS011;64362;45.620;4.920;2023-12-07T09:40:43;4.70;;;2.00;;
59734;SDS011;64362;45.620;4.920;2023-12-07T09:43:10;3.30;;;1.95;;
59734;SDS011;64362;45.620;4.920;2023-12-07T09:45:35;2.53;;;1.80;;
59734;SDS011;64362;45.620;4.920;2023-12-07T09:48:01;2.80;;;1.90;;
59734;SDS011;64362;45.620;4.920;2023-12-07T09:50:27;3.47;;;1.88;;
59734;SDS011;64362;45.620;4.920;2023-12-07T09:52:54;2.58;;;1.75;;
59734;SDS011;64362;45.620;4.920;2023-12-07T09:55:21;2.83;;;1.98;;
59734;SDS011;64362;45.620;4.920;2023-12-07T09:57:47;3.20;;;2.00;;
59734;SDS011;64362;45.620;4.920;2023-12-07T10:00:13;4.50;;;2.25;;
59734;SDS011;64362;45.620;4.920;2023-12-07T10:02:40;3.75;;;2.33;;
59734;SDS011;64362;45.620;4.920;2023-12-07T10:05:13;2.67;;;1.85;;
59734;SDS011;64362;45.620;4.920;2023-12-07T10:07:42;3.00;;;1.92;;
59734;SDS011;64362;45.620;4.920;2023-12-07T10:10:09;2.90;;;1.80;;
59734;SDS011;64362;45.620;4.920;2023-12-07T10:12:40;3.25;;;2.22;;
59734;SDS011;64362;45.620;4.920;2023-12-07T10:15:19;2.88;;;1.77;;
59734;SDS011;64362;45.620;4.920;2023-12-07T10:17:46;3.00;;;2.05;;
59734;SDS011;64362;45.620;4.920;2023-12-07T10:20:22;4.03;;;2.20;;
59734;SDS011;64362;45.620;4.920;2023-12-07T10:22:49;3.15;;;2.13;;
59734;SDS011;64362;45.620;4.920;2023-12-07T10:25:39;3.30;;;2.15;;
59734;SDS011;64362;45.620;4.920;2023-12-07T10:28:07;3.08;;;2.22;;
59734;SDS011;64362;45.620;4.920;2023-12-07T10:30:34;3.28;;;1.98;;
59734;SDS011;64362;45.620;4.920;2023-12-07T10:33:00;3.10;;;1.75;;
59734;SDS011;64362;45.620;4.920;2023-12-07T10:35:28;2.92;;;2.10;;
59734;SDS011;64362;45.620;4.920;2023-12-07T10:37:54;2.90;;;2.10;;
59734;SDS011;64362;45.620;4.920;2023-12-07T10:40:20;3.05;;;2.25;;
59734;SDS011;64362;45.620;4.920;2023-12-07T10:42:47;3.55;;;2.50;;
59734;SDS011;64362;45.620;4.920;2023-12-07T10:45:13;4.30;;;2.42;;
59734;SDS011;64362;45.620;4.920;2023-12-07T10:47:40;3.85;;;2.53;;
59734;SDS011;64362;45.620;4.920;2023-12-07T10:50:09;4.07;;;2.40;;
59734;SDS011;64362;45.620;4.920;2023-12-07T10:52:53;3.83;;;2.55;;
59734;SDS011;64362;45.620;4.920;2023-12-07T10:55:20;4.13;;;2.63;;
59734;SDS011;64362;45.620;4.920;2023-12-07T10:57:49;3.78;;;2.38;;
59734;SDS011;64362;45.620;4.920;2023-12-07T11:00:17;4.22;;;2.85;;
59734;SDS011;64362;45.620;4.920;2023-12-07T11:02:45;6.22;;;3.08;;
59734;SDS011;64362;45.620;4.920;2023-12-07T11:05:11;4.95;;;2.88;;
59734;SDS011;64362;45.620;4.920;2023-12-07T11:07:39;3.58;;;2.28;;
59734;SDS011;64362;45.620;4.920;2023-12-07T11:10:14;4.15;;;2.60;;
59734;SDS011;64362;45.620;4.920;2023-12-07T11:12:53;3.35;;;2.30;;
59734;SDS011;64362;45.620;4.920;2023-12-07T11:15:23;3.17;;;2.08;;
59734;SDS011;64362;45.620;4.920;2023-12-07T11:17:52;6.10;;;2.42;;
59734;SDS011;64362;45.620;4.920;2023-12-07T11:20:22;2.80;;;2.00;;
59734;SDS011;64362;45.620;4.920;2023-12-07T11:22:50;4.50;;;2.25;;
59734;SDS011;64362;45.620;4.920;2023-12-07T11:25:17;3.55;;;2.30;;
59734;SDS011;64362;45.620;4.920;2023-12-07T11:27:43;3.40;;;2.40;;
59734;SDS011;64362;45.620;4.920;2023-12-07T11:30:12;3.40;;;2.22;;
59734;SDS011;64362;45.620;4.920;2023-12-07T11:32:39;3.50;;;2.40;;
59734;SDS011;64362;45.620;4.920;2023-12-07T11:35:05;2.97;;;1.95;;
59734;SDS011;64362;45.620;4.920;2023-12-07T11:40:25;2.95;;;2.15;;
59734;SDS011;64362;45.620;4.920;2023-12-07T11:42:52;3.35;;;2.03;;
59734;SDS011;64362;45.620;4.920;2023-12-07T11:45:35;3.67;;;2.25;;
59734;SDS011;64362;45.620;4.920;2023-12-07T11:48:11;2.30;;;1.60;;
59734;SDS011;64362;45.620;4.920;2023-12-07T11:50:59;2.90;;;1.92;;
59734;SDS011;64362;45.620;4.920;2023-12-07T11:53:24;3.10;;;1.65;;
59734;SDS011;64362;45.620;4.920;2023-12-07T11:55:55;3.08;;;1.75;;
59734;SDS011;64362;45.620;4.920;2023-12-07T11:58:28;2.22;;;1.30;;
59734;SDS011;64362;45.620;4.920;2023-12-07T12:00:54;2.47;;;1.60;;
59734;SDS011;64362;45.620;4.920;2023-12-07T12:03:21;3.60;;;1.70;;
59734;SDS011;64362;45.620;4.920;2023-12-07T12:05:47;3.17;;;1.77;;
59734;SDS011;64362;45.620;4.920;2023-12-07T12:08:13;4.10;;;1.65;;
59734;SDS011;64362;45.620;4.920;2023-12-07T12:10:39;3.47;;;1.60;;
59734;SDS011;64362;45.620;4.920;2023-12-07T12:15:38;3.33;;;1.58;;
59734;SDS011;64362;45.620;4.920;2023-12-07T12:18:04;2.20;;;1.60;;
59734;SDS011;64362;45.620;4.920;2023-12-07T12:20:30;3.10;;;1.75;;
59734;SDS011;64362;45.620;4.920;2023-12-07T12:22:57;2.63;;;1.60;;
59734;SDS011;64362;45.620;4.920;2023-12-07T12:25:23;2.70;;;1.70;;
59734;SDS011;64362;45.620;4.920;2023-12-07T12:27:51;4.00;;;1.95;;
59734;SDS011;64362;45.620;4.920;2023-12-07T12:30:17;3.53;;;1.67;;
59734;SDS011;64362;45.620;4.920;2023-12-07T12:32:46;2.78;;;1.92;;
59734;SDS011;64362;45.620;4.920;2023-12-07T12:35:12;4.10;;;2.33;;
59734;SDS011;64362;45.620;4.920;2023-12-07T12:37:40;3.95;;;2.47;;
59734;SDS011;64362;45.620;4.920;2023-12-07T12:40:12;4.50;;;2.40;;
59734;SDS011;64362;45.620;4.920;2023-12-07T12:42:45;4.97;;;2.33;;
59734;SDS011;64362;45.620;4.920;2023-12-07T12:45:12;3.10;;;2.00;;
59734;SDS011;64362;45.620;4.920;2023-12-07T12:47:38;7.30;;;2.05;;
59734;SDS011;64362;45.620;4.920;2023-12-07T12:50:05;5.07;;;2.63;;
59734;SDS011;64362;45.620;4.920;2023-12-07T12:52:31;5.00;;;2.33;;
59734;SDS011;64362;45.620;4.920;2023-12-07T12:54:57;4.38;;;2.28;;
59734;SDS011;64362;45.620;4.920;2023-12-07T12:57:23;3.88;;;2.50;;
59734;SDS011;64362;45.620;4.920;2023-12-07T12:59:50;5.55;;;2.20;;
59734;SDS011;64362;45.620;4.920;2023-12-07T13:02:16;4.18;;;2.45;;
59734;SDS011;64362;45.620;4.920;2023-12-07T13:04:41;3.40;;;2.20;;
59734;SDS011;64362;45.620;4.920;2023-12-07T13:07:06;4.93;;;2.75;;
59734;SDS011;64362;45.620;4.920;2023-12-07T13:09:32;4.35;;;2.40;;
59734;SDS011;64362;45.620;4.920;2023-12-07T13:11:58;4.53;;;2.20;;
59734;SDS011;64362;45.620;4.920;2023-12-07T13:14:23;3.75;;;2.20;;
59734;SDS011;64362;45.620;4.920;2023-12-07T13:16:49;3.88;;;2.20;;
59734;SDS011;64362;45.620;4.920;2023-12-07T13:19:15;4.15;;;2.50;;
59734;SDS011;64362;45.620;4.920;2023-12-07T13:21:40;3.72;;;2.78;;
59734;SDS011;64362;45.620;4.920;2023-12-07T13:24:06;4.93;;;2.65;;
59734;SDS011;64362;45.620;4.920;2023-12-07T13:26:32;5.28;;;3.00;;
59734;SDS011;64362;45.620;4.920;2023-12-07T13:28:58;5.40;;;2.88;;
59734;SDS011;64362;45.620;4.920;2023-12-07T13:31:23;7.97;;;3.00;;
59734;SDS011;64362;45.620;4.920;2023-12-07T13:33:50;5.68;;;3.08;;
59734;SDS011;64362;45.620;4.920;2023-12-07T13:36:15;4.20;;;2.95;;
59734;SDS011;64362;45.620;4.920;2023-12-07T13:38:43;5.60;;;3.10;;
59734;SDS011;64362;45.620;4.920;2023-12-07T13:41:09;4.75;;;3.10;;
59734;SDS011;64362;45.620;4.920;2023-12-07T13:43:34;4.70;;;3.20;;
59734;SDS011;64362;45.620;4.920;2023-12-07T13:46:00;4.63;;;3.58;;
59734;SDS011;64362;45.620;4.920;2023-12-07T13:48:25;5.43;;;3.05;;
59734;SDS011;64362;45.620;4.920;2023-12-07T13:50:52;4.97;;;2.88;;
59734;SDS011;64362;45.620;4.920;2023-12-07T13:53:17;3.47;;;2.65;;
59734;SDS011;64362;45.620;4.920;2023-12-07T13:55:44;4.60;;;2.95;;
59734;SDS011;64362;45.620;4.920;2023-12-07T13:58:10;6.18;;;3.22;;
59734;SDS011;64362;45.620;4.920;2023-12-07T14:00:37;4.28;;;3.15;;
59734;SDS011;64362;45.620;4.920;2023-12-07T14:03:03;4.63;;;3.00;;
59734;SDS011;64362;45.620;4.920;2023-12-07T14:05:31;4.13;;;3.00;;
59734;SDS011;64362;45.620;4.920;2023-12-07T14:07:57;4.35;;;3.03;;
59734;SDS011;64362;45.620;4.920;2023-12-07T14:10:22;3.83;;;2.90;;
59734;SDS011;64362;45.620;4.920;2023-12-07T14:12:48;3.95;;;3.10;;
59734;SDS011;64362;45.620;4.920;2023-12-07T14:15:13;5.03;;;2.95;;
59734;SDS011;64362;45.620;4.920;2023-12-07T14:17:39;4.57;;;3.13;;
59734;SDS011;64362;45.620;4.920;2023-12-07T14:20:04;4.65;;;3.28;;
59734;SDS011;64362;45.620;4.920;2023-12-07T14:22:32;4.25;;;3.13;;
59734;SDS011;64362;45.620;4.920;2023-12-07T14:24:58;3.88;;;3.20;;
59734;SDS011;64362;45.620;4.920;2023-12-07T14:27:23;4.65;;;3.55;;
59734;SDS011;64362;45.620;4.920;2023-12-07T14:29:49;3.85;;;2.92;;
59734;SDS011;64362;45.620;4.920;2023-12-07T14:32:15;5.22;;;3.35;;
59734;SDS011;64362;45.620;4.920;2023-12-07T14:34:40;4.68;;;3.33;;
59734;SDS011;64362;45.620;4.920;2023-12-07T14:37:06;4.60;;;3.40;;
59734;SDS011;64362;45.620;4.920;2023-12-07T14:39:33;4.35;;;3.05;;
59734;SDS011;64362;45.620;4.920;2023-12-07T14:42:01;4.13;;;2.72;;
59734;SDS011;64362;45.620;4.920;2023-12-07T14:44:28;4.20;;;3.22;;
59734;SDS011;64362;45.620;4.920;2023-12-07T14:46:54;4.10;;;3.00;;
59734;SDS011;64362;45.620;4.920;2023-12-07T14:49:19;4.93;;;3.13;;
59734;SDS011;64362;45.620;4.920;2023-12-07T14:51:49;4.43;;;3.25;;